sensor_id;sensor_type;location;lat;lon;timestamp;pressure;altitude;pressure_sealevel;temperature;humidity
71107;BME280;58763;47.982;11.516;2023-05-24T00:00:28;94301.03;;;14.22;76.33
71107;BME280;58763;47.982;11.516;2023-05-24T00:02:53;94300.22;;;14.21;75.99
71107;BME280;58763;47.982;11.516;2023-05-24T00:05:19;94296.00;;;14.15;76.02
71107;BME280;58763;47.982;11.516;2023-05-24T00:07:44;94291.09;;;14.04;76.49
71107;BME280;58763;47.982;11.516;2023-05-24T00:10:10;94291.78;;;14.09;76.43
71107;BME280;58763;47.982;11.516;2023-05-24T00:12:36;94285.03;;;14.07;76.84
71107;BME280;58763;47.982;11.516;2023-05-24T00:15:01;94281.91;;;14.13;76.39
71107;BME280;58763;47.982;11.516;2023-05-24T00:17:27;94279.78;;;14.10;76.47
71107;BME280;58763;47.982;11.516;2023-05-24T00:19:54;94282.41;;;14.15;76.03
71107;BME280;58763;47.982;11.516;2023-05-24T00:22:20;94281.84;;;14.05;76.40
71107;BME280;58763;47.982;11.516;2023-05-24T00:24:48;94281.44;;;13.98;76.27
71107;BME280;58763;47.982;11.516;2023-05-24T00:27:14;94276.00;;;13.98;76.73
71107;BME280;58763;47.982;11.516;2023-05-24T00:29:40;94279.91;;;13.92;76.33
71107;BME280;58763;47.982;11.516;2023-05-24T00:32:05;94273.66;;;13.91;76.14
71107;BME280;58763;47.982;11.516;2023-05-24T00:34:31;94277.50;;;13.90;76.28
71107;BME280;58763;47.982;11.516;2023-05-24T00:36:56;94281.25;;;13.80;76.35
71107;BME280;58763;47.982;11.516;2023-05-24T00:39:23;94277.59;;;13.85;76.37
71107;BME280;58763;47.982;11.516;2023-05-24T00:41:48;94269.13;;;13.86;76.58
71107;BME280;58763;47.982;11.516;2023-05-24T00:44:14;94267.03;;;13.70;76.55
71107;BME280;58763;47.982;11.516;2023-05-24T00:46:40;94271.38;;;13.71;76.44
71107;BME280;58763;47.982;11.516;2023-05-24T00:49:06;94274.19;;;13.66;76.62
71107;BME280;58763;47.982;11.516;2023-05-24T00:51:31;94269.75;;;13.56;76.71
71107;BME280;58763;47.982;11.516;2023-05-24T00:53:58;94276.00;;;13.57;76.82
71107;BME280;58763;47.982;11.516;2023-05-24T00:56:25;94273.50;;;13.60;77.09
71107;BME280;58763;47.982;11.516;2023-05-24T00:58:51;94273.78;;;13.59;77.04
71107;BME280;58763;47.982;11.516;2023-05-24T01:01:21;94275.41;;;13.60;77.03
71107;BME280;58763;47.982;11.516;2023-05-24T01:03:53;94276.41;;;13.50;76.84
71107;BME280;58763;47.982;11.516;2023-05-24T01:06:19;94275.09;;;13.48;77.23
71107;BME280;58763;47.982;11.516;2023-05-24T01:09:01;94271.47;;;13.52;77.31
71107;BME280;58763;47.982;11.516;2023-05-24T01:25:03;94261.09;;;13.41;77.40
71107;BME280;58763;47.982;11.516;2023-05-24T01:27:33;94264.72;;;13.50;77.32
71107;BME280;58763;47.982;11.516;2023-05-24T01:30:02;94263.81;;;13.54;77.06
71107;BME280;58763;47.982;11.516;2023-05-24T01:32:29;94266.63;;;13.63;77.17
71107;BME280;58763;47.982;11.516;2023-05-24T01:34:54;94266.94;;;13.61;77.27
71107;BME280;58763;47.982;11.516;2023-05-24T01:37:20;94267.75;;;13.62;76.95
71107;BME280;58763;47.982;11.516;2023-05-24T01:39:46;94271.19;;;13.67;77.04
71107;BME280;58763;47.982;11.516;2023-05-24T01:42:23;94265.84;;;13.62;76.75
71107;BME280;58763;47.982;11.516;2023-05-24T01:50:31;94276.00;;;13.43;77.52
71107;BME280;58763;47.982;11.516;2023-05-24T01:53:03;94267.44;;;13.50;77.67
71107;BME280;58763;47.982;11.516;2023-05-24T01:55:29;94263.50;;;13.42;77.60
71107;BME280;58763;47.982;11.516;2023-05-24T01:58:01;94269.34;;;13.36;78.01
71107;BME280;58763;47.982;11.516;2023-05-24T02:00:27;94272.56;;;13.38;78.12
71107;BME280;58763;47.982;11.516;2023-05-24T02:02:54;94266.31;;;13.37;78.23
71107;BME280;58763;47.982;11.516;2023-05-24T02:05:20;94270.66;;;13.25;77.54
71107;BME280;58763;47.982;11.516;2023-05-24T02:07:45;94269.44;;;13.31;77.65
71107;BME280;58763;47.982;11.516;2023-05-24T02:10:12;94265.53;;;13.23;78.04
71107;BME280;58763;47.982;11.516;2023-05-24T02:12:38;94262.50;;;13.25;78.35
71107;BME280;58763;47.982;11.516;2023-05-24T02:15:04;94270.56;;;13.30;78.21
71107;BME280;58763;47.982;11.516;2023-05-24T02:17:30;94274.97;;;13.26;77.99
71107;BME280;58763;47.982;11.516;2023-05-24T02:20:00;94267.94;;;13.25;78.05
71107;BME280;58763;47.982;11.516;2023-05-24T02:22:26;94266.63;;;13.22;78.09
71107;BME280;58763;47.982;11.516;2023-05-24T02:24:53;94268.53;;;13.22;78.62
71107;BME280;58763;47.982;11.516;2023-05-24T02:27:18;94265.53;;;13.23;78.60
71107;BME280;58763;47.982;11.516;2023-05-24T02:29:44;94262.50;;;13.25;78.22
71107;BME280;58763;47.982;11.516;2023-05-24T02:32:10;94262.59;;;13.20;77.87
71107;BME280;58763;47.982;11.516;2023-05-24T02:34:35;94258.66;;;13.26;77.98
71107;BME280;58763;47.982;11.516;2023-05-24T02:37:01;94259.28;;;13.36;77.91
71107;BME280;58763;47.982;11.516;2023-05-24T02:39:26;94258.78;;;13.34;78.05
71107;BME280;58763;47.982;11.516;2023-05-24T02:41:52;94253.06;;;13.36;77.75
71107;BME280;58763;47.982;11.516;2023-05-24T02:44:18;94251.81;;;13.28;78.33
71107;BME280;58763;47.982;11.516;2023-05-24T02:46:43;94263.22;;;13.30;78.32
71107;BME280;58763;47.982;11.516;2023-05-24T02:49:09;94257.97;;;13.34;78.71
71107;BME280;58763;47.982;11.516;2023-05-24T02:51:35;94259.06;;;13.33;78.72
71107;BME280;58763;47.982;11.516;2023-05-24T02:54:01;94254.25;;;13.30;78.84
71107;BME280;58763;47.982;11.516;2023-05-24T02:56:27;94257.88;;;13.25;78.73
71107;BME280;58763;47.982;11.516;2023-05-24T02:58:54;94250.00;;;13.24;79.02
71107;BME280;58763;47.982;11.516;2023-05-24T03:01:20;94255.44;;;13.24;78.46
71107;BME280;58763;47.982;11.516;2023-05-24T03:03:46;94248.69;;;13.21;78.45
71107;BME280;58763;47.982;11.516;2023-05-24T03:06:11;94255.66;;;13.13;78.78
71107;BME280;58763;47.982;11.516;2023-05-24T03:08:39;94252.63;;;13.15;79.08
71107;BME280;58763;47.982;11.516;2023-05-24T03:11:05;94246.56;;;13.04;79.37
71107;BME280;58763;47.982;11.516;2023-05-24T03:13:31;94243.75;;;13.09;79.34
71107;BME280;58763;47.982;11.516;2023-05-24T03:15:56;94240.09;;;13.00;79.73
71107;BME280;58763;47.982;11.516;2023-05-24T03:18:22;94238.19;;;13.01;79.94
71107;BME280;58763;47.982;11.516;2023-05-24T03:20:48;94244.28;;;12.93;79.70
71107;BME280;58763;47.982;11.516;2023-05-24T03:23:13;94250.13;;;12.86;79.95
71107;BME280;58763;47.982;11.516;2023-05-24T03:25:39;94255.53;;;12.86;80.07
71107;BME280;58763;47.982;11.516;2023-05-24T03:28:05;94254.97;;;12.89;80.41
71107;BME280;58763;47.982;11.516;2023-05-24T03:30:31;94247.53;;;12.95;79.79
71107;BME280;58763;47.982;11.516;2023-05-24T03:32:57;94253.06;;;13.03;79.40
71107;BME280;58763;47.982;11.516;2023-05-24T03:35:23;94258.16;;;12.91;79.66
71107;BME280;58763;47.982;11.516;2023-05-24T03:37:48;94259.50;;;12.94;80.07
71107;BME280;58763;47.982;11.516;2023-05-24T03:40:14;94263.00;;;12.94;79.64
71107;BME280;58763;47.982;11.516;2023-05-24T03:42:40;94259.59;;;13.02;79.68
71107;BME280;58763;47.982;11.516;2023-05-24T03:45:06;94257.78;;;12.98;79.87
71107;BME280;58763;47.982;11.516;2023-05-24T03:47:31;94268.13;;;12.96;79.59
71107;BME280;58763;47.982;11.516;2023-05-24T03:49:57;94267.84;;;12.97;79.63
71107;BME280;58763;47.982;11.516;2023-05-24T03:52:23;94264.53;;;13.00;79.78
71107;BME280;58763;47.982;11.516;2023-05-24T03:54:48;94268.88;;;13.01;79.56
71107;BME280;58763;47.982;11.516;2023-05-24T03:57:14;94265.66;;;12.99;79.37
71107;BME280;58763;47.982;11.516;2023-05-24T03:59:39;94268.09;;;12.82;79.70
71107;BME280;58763;47.982;11.516;2023-05-24T04:02:05;94262.69;;;12.82;79.97
71107;BME280;58763;47.982;11.516;2023-05-24T04:04:31;94261.59;;;12.83;79.74
71107;BME280;58763;47.982;11.516;2023-05-24T04:06:56;94268.03;;;12.87;79.95
71107;BME280;58763;47.982;11.516;2023-05-24T04:09:22;94267.94;;;12.92;79.74
71107;BME280;58763;47.982;11.516;2023-05-24T04:11:48;94269.63;;;12.88;79.78
71107;BME280;58763;47.982;11.516;2023-05-24T04:14:14;94266.59;;;12.76;80.38
71107;BME280;58763;47.982;11.516;2023-05-24T04:16:39;94270.38;;;12.75;80.59
71107;BME280;58763;47.982;11.516;2023-05-24T04:19:06;94266.94;;;12.70;80.51
71107;BME280;58763;47.982;11.516;2023-05-24T04:21:31;94257.84;;;12.79;80.67
71107;BME280;58763;47.982;11.516;2023-05-24T04:23:57;94267.75;;;12.70;80.37
71107;BME280;58763;47.982;11.516;2023-05-24T04:26:26;94267.00;;;12.83;80.69
71107;BME280;58763;47.982;11.516;2023-05-24T04:28:52;94275.31;;;12.73;80.69
71107;BME280;58763;47.982;11.516;2023-05-24T04:31:18;94270.78;;;12.69;80.58
71107;BME280;58763;47.982;11.516;2023-05-24T04:33:44;94277.72;;;12.75;80.83
71107;BME280;58763;47.982;11.516;2023-05-24T04:36:10;94282.25;;;12.79;80.71
71107;BME280;58763;47.982;11.516;2023-05-24T04:38:36;94280.75;;;12.55;81.69
71107;BME280;58763;47.982;11.516;2023-05-24T04:41:03;94287.06;;;12.50;81.03
71107;BME280;58763;47.982;11.516;2023-05-24T04:43:32;94292.63;;;12.59;81.46
71107;BME280;58763;47.982;11.516;2023-05-24T04:46:00;94285.97;;;12.32;82.04
71107;BME280;58763;47.982;11.516;2023-05-24T04:48:26;94289.03;;;12.44;81.69
71107;BME280;58763;47.982;11.516;2023-05-24T04:50:52;94284.50;;;12.40;81.42
71107;BME280;58763;47.982;11.516;2023-05-24T04:53:19;94284.56;;;12.54;81.21
71107;BME280;58763;47.982;11.516;2023-05-24T04:55:45;94286.69;;;12.57;80.85
71107;BME280;58763;47.982;11.516;2023-05-24T04:58:10;94292.50;;;12.50;80.67
71107;BME280;58763;47.982;11.516;2023-05-24T05:00:36;94284.13;;;12.46;81.13
71107;BME280;58763;47.982;11.516;2023-05-24T05:03:01;94294.53;;;12.58;80.67
71107;BME280;58763;47.982;11.516;2023-05-24T05:05:27;94295.13;;;12.55;80.21
71107;BME280;58763;47.982;11.516;2023-05-24T05:07:53;94296.03;;;12.51;80.55
71107;BME280;58763;47.982;11.516;2023-05-24T05:10:19;94286.84;;;12.46;80.58
71107;BME280;58763;47.982;11.516;2023-05-24T05:12:44;94291.31;;;12.56;80.12
71107;BME280;58763;47.982;11.516;2023-05-24T05:15:10;94286.81;;;12.65;79.82
71107;BME280;58763;47.982;11.516;2023-05-24T05:17:36;94288.47;;;12.47;80.10
71107;BME280;58763;47.982;11.516;2023-05-24T05:20:02;94284.56;;;12.54;80.07
71107;BME280;58763;47.982;11.516;2023-05-24T05:22:28;94279.13;;;12.54;80.20
71107;BME280;58763;47.982;11.516;2023-05-24T05:24:53;94270.72;;;12.55;80.79
71107;BME280;58763;47.982;11.516;2023-05-24T05:27:19;94273.19;;;12.70;80.08
71107;BME280;58763;47.982;11.516;2023-05-24T05:29:45;94272.13;;;12.53;80.67
71107;BME280;58763;47.982;11.516;2023-05-24T05:32:10;94276.94;;;12.37;81.15
71107;BME280;58763;47.982;11.516;2023-05-24T05:34:35;94279.53;;;12.28;81.42
71107;BME280;58763;47.982;11.516;2023-05-24T05:37:01;94271.75;;;12.40;81.68
71107;BME280;58763;47.982;11.516;2023-05-24T05:39:26;94272.34;;;12.37;81.08
71107;BME280;58763;47.982;11.516;2023-05-24T05:41:52;94270.38;;;12.43;81.49
71107;BME280;58763;47.982;11.516;2023-05-24T05:44:18;94281.94;;;12.48;81.77
71107;BME280;58763;47.982;11.516;2023-05-24T05:46:44;94273.63;;;12.59;80.87
71107;BME280;58763;47.982;11.516;2023-05-24T05:49:11;94273.25;;;12.65;80.90
71107;BME280;58763;47.982;11.516;2023-05-24T05:51:37;94274.75;;;12.58;80.75
71107;BME280;58763;47.982;11.516;2023-05-24T05:54:04;94278.47;;;12.62;81.19
71107;BME280;58763;47.982;11.516;2023-05-24T05:56:30;94275.63;;;12.72;80.09
71107;BME280;58763;47.982;11.516;2023-05-24T05:58:55;94288.16;;;12.68;79.54
71107;BME280;58763;47.982;11.516;2023-05-24T06:01:22;94280.44;;;12.75;79.90
71107;BME280;58763;47.982;11.516;2023-05-24T06:03:47;94283.50;;;12.87;79.76
71107;BME280;58763;47.982;11.516;2023-05-24T06:06:13;94283.31;;;12.97;79.14
71107;BME280;58763;47.982;11.516;2023-05-24T06:08:38;94279.31;;;12.94;78.49
71107;BME280;58763;47.982;11.516;2023-05-24T06:11:05;94285.75;;;12.98;78.63
71107;BME280;58763;47.982;11.516;2023-05-24T06:13:30;94276.28;;;12.96;78.74
71107;BME280;58763;47.982;11.516;2023-05-24T06:15:57;94278.28;;;12.90;78.64
71107;BME280;58763;47.982;11.516;2023-05-24T06:18:23;94269.34;;;12.90;79.18
71107;BME280;58763;47.982;11.516;2023-05-24T06:20:49;94272.44;;;12.83;78.96
71107;BME280;58763;47.982;11.516;2023-05-24T06:23:15;94270.19;;;12.72;79.31
71107;BME280;58763;47.982;11.516;2023-05-24T06:25:40;94277.78;;;12.70;79.06
71107;BME280;58763;47.982;11.516;2023-05-24T06:28:08;94285.16;;;12.69;80.15
71107;BME280;58763;47.982;11.516;2023-05-24T06:30:33;94280.22;;;12.71;80.03
71107;BME280;58763;47.982;11.516;2023-05-24T06:32:59;94279.53;;;12.79;79.39
71107;BME280;58763;47.982;11.516;2023-05-24T06:35:25;94282.22;;;12.98;78.85
71107;BME280;58763;47.982;11.516;2023-05-24T06:37:51;94290.84;;;13.18;78.25
71107;BME280;58763;47.982;11.516;2023-05-24T06:40:16;94285.22;;;13.29;76.52
71107;BME280;58763;47.982;11.516;2023-05-24T06:42:42;94289.34;;;13.40;76.41
71107;BME280;58763;47.982;11.516;2023-05-24T06:45:08;94280.03;;;13.46;75.40
71107;BME280;58763;47.982;11.516;2023-05-24T06:47:34;94290.91;;;13.46;74.23
71107;BME280;58763;47.982;11.516;2023-05-24T06:50:01;94289.09;;;13.55;74.09
71107;BME280;58763;47.982;11.516;2023-05-24T06:52:28;94290.91;;;13.46;75.00
71107;BME280;58763;47.982;11.516;2023-05-24T06:54:53;94292.22;;;13.62;75.22
71107;BME280;58763;47.982;11.516;2023-05-24T06:57:20;94293.41;;;13.83;73.83
71107;BME280;58763;47.982;11.516;2023-05-24T06:59:45;94290.88;;;13.86;72.76
71107;BME280;58763;47.982;11.516;2023-05-24T07:02:11;94288.56;;;13.94;72.50
71107;BME280;58763;47.982;11.516;2023-05-24T07:04:39;94282.66;;;13.78;72.87
71107;BME280;58763;47.982;11.516;2023-05-24T07:07:05;94282.72;;;13.86;72.74
71107;BME280;58763;47.982;11.516;2023-05-24T07:09:32;94284.84;;;13.90;71.31
71107;BME280;58763;47.982;11.516;2023-05-24T07:11:58;94284.78;;;13.81;70.99
71107;BME280;58763;47.982;11.516;2023-05-24T07:14:23;94286.06;;;13.70;71.98
71107;BME280;58763;47.982;11.516;2023-05-24T07:16:50;94289.59;;;13.57;72.40
71107;BME280;58763;47.982;11.516;2023-05-24T07:19:16;94288.69;;;13.75;73.02
71107;BME280;58763;47.982;11.516;2023-05-24T07:21:41;94291.78;;;13.96;71.82
71107;BME280;58763;47.982;11.516;2023-05-24T07:24:07;94303.97;;;14.12;71.64
71107;BME280;58763;47.982;11.516;2023-05-24T07:26:33;94298.13;;;14.32;70.26
71107;BME280;58763;47.982;11.516;2023-05-24T07:28:58;94309.56;;;14.42;70.14
71107;BME280;58763;47.982;11.516;2023-05-24T07:31:25;94296.97;;;14.46;69.21
71107;BME280;58763;47.982;11.516;2023-05-24T07:33:53;94294.22;;;14.60;69.49
71107;BME280;58763;47.982;11.516;2023-05-24T07:36:19;94290.38;;;14.61;69.41
71107;BME280;58763;47.982;11.516;2023-05-24T07:38:45;94297.06;;;14.55;69.66
71107;BME280;58763;47.982;11.516;2023-05-24T07:41:12;94293.78;;;14.67;68.77
71107;BME280;58763;47.982;11.516;2023-05-24T07:43:38;94294.97;;;14.74;68.73
71107;BME280;58763;47.982;11.516;2023-05-24T07:46:03;94291.22;;;14.84;69.18
71107;BME280;58763;47.982;11.516;2023-05-24T07:48:29;94296.44;;;14.80;69.21
71107;BME280;58763;47.982;11.516;2023-05-24T07:50:54;94281.91;;;14.85;68.77
71107;BME280;58763;47.982;11.516;2023-05-24T07:53:20;94277.47;;;14.89;69.96
71107;BME280;58763;47.982;11.516;2023-05-24T07:55:47;94287.28;;;14.98;69.16
71107;BME280;58763;47.982;11.516;2023-05-24T07:58:13;94283.59;;;14.94;71.45
71107;BME280;58763;47.982;11.516;2023-05-24T08:00:38;94284.56;;;14.98;69.87
71107;BME280;58763;47.982;11.516;2023-05-24T08:03:04;94288.38;;;15.19;68.25
71107;BME280;58763;47.982;11.516;2023-05-24T08:05:30;94296.00;;;14.87;68.79
71107;BME280;58763;47.982;11.516;2023-05-24T08:07:57;94297.63;;;14.88;68.33
71107;BME280;58763;47.982;11.516;2023-05-24T08:10:22;94299.81;;;14.99;67.38
71107;BME280;58763;47.982;11.516;2023-05-24T08:12:49;94291.75;;;15.16;67.13
71107;BME280;58763;47.982;11.516;2023-05-24T08:15:19;94293.59;;;15.30;67.56
71107;BME280;58763;47.982;11.516;2023-05-24T08:17:45;94291.84;;;15.34;68.65
71107;BME280;58763;47.982;11.516;2023-05-24T08:20:11;94293.59;;;15.30;69.65
71107;BME280;58763;47.982;11.516;2023-05-24T08:22:41;94293.34;;;15.40;68.40
71107;BME280;58763;47.982;11.516;2023-05-24T08:25:07;94299.34;;;15.50;66.05
71107;BME280;58763;47.982;11.516;2023-05-24T08:27:33;94288.13;;;15.30;67.53
71107;BME280;58763;47.982;11.516;2023-05-24T08:29:59;94296.06;;;15.40;66.36
71107;BME280;58763;47.982;11.516;2023-05-24T08:32:24;94296.88;;;15.18;66.76
71107;BME280;58763;47.982;11.516;2023-05-24T08:34:50;94295.94;;;15.22;67.40
71107;BME280;58763;47.982;11.516;2023-05-24T08:37:15;94298.72;;;15.31;66.04
71107;BME280;58763;47.982;11.516;2023-05-24T08:39:45;94297.72;;;15.27;66.09
71107;BME280;58763;47.982;11.516;2023-05-24T08:42:11;94306.75;;;15.36;65.90
71107;BME280;58763;47.982;11.516;2023-05-24T08:44:51;94299.22;;;15.55;65.84
71107;BME280;58763;47.982;11.516;2023-05-24T08:47:19;94300.38;;;15.63;64.79
71107;BME280;58763;47.982;11.516;2023-05-24T08:49:46;94300.47;;;15.49;64.59
71107;BME280;58763;47.982;11.516;2023-05-24T08:52:13;94298.41;;;15.55;64.75
71107;BME280;58763;47.982;11.516;2023-05-24T08:54:39;94299.56;;;15.62;64.83
71107;BME280;58763;47.982;11.516;2023-05-24T08:57:05;94304.75;;;15.72;64.70
71107;BME280;58763;47.982;11.516;2023-05-24T08:59:32;94312.63;;;15.82;62.90
71107;BME280;58763;47.982;11.516;2023-05-24T09:01:58;94309.75;;;15.87;62.86
71107;BME280;58763;47.982;11.516;2023-05-24T09:04:26;94313.28;;;15.79;63.20
71107;BME280;58763;47.982;11.516;2023-05-24T09:06:53;94310.94;;;15.64;63.90
71107;BME280;58763;47.982;11.516;2023-05-24T09:09:20;94307.00;;;15.70;64.70
71107;BME280;58763;47.982;11.516;2023-05-24T09:11:48;94305.97;;;15.58;63.63
71107;BME280;58763;47.982;11.516;2023-05-24T09:14:14;94310.81;;;15.69;63.29
71107;BME280;58763;47.982;11.516;2023-05-24T09:16:42;94313.28;;;15.79;63.70
71107;BME280;58763;47.982;11.516;2023-05-24T09:19:09;94313.41;;;15.74;64.07
71107;BME280;58763;47.982;11.516;2023-05-24T09:21:35;94314.38;;;15.78;65.34
71107;BME280;58763;47.982;11.516;2023-05-24T09:24:00;94314.00;;;15.63;64.36
71107;BME280;58763;47.982;11.516;2023-05-24T09:26:26;94319.53;;;15.49;63.99
71107;BME280;58763;47.982;11.516;2023-05-24T09:28:54;94316.94;;;15.44;65.37
71107;BME280;58763;47.982;11.516;2023-05-24T09:31:31;94318.16;;;15.38;65.05
71107;BME280;58763;47.982;11.516;2023-05-24T09:33:57;94326.97;;;15.35;65.42
71107;BME280;58763;47.982;11.516;2023-05-24T09:36:22;94333.41;;;15.39;66.04
71107;BME280;58763;47.982;11.516;2023-05-24T09:38:48;94324.41;;;15.39;65.97
71107;BME280;58763;47.982;11.516;2023-05-24T09:41:14;94323.09;;;15.36;63.95
71107;BME280;58763;47.982;11.516;2023-05-24T09:43:47;94325.03;;;15.36;64.32
71107;BME280;58763;47.982;11.516;2023-05-24T09:46:17;94328.50;;;15.28;64.92
71107;BME280;58763;47.982;11.516;2023-05-24T09:48:58;94332.41;;;15.35;65.80
71107;BME280;58763;47.982;11.516;2023-05-24T09:51:24;94343.72;;;15.29;65.31
71107;BME280;58763;47.982;11.516;2023-05-24T09:53:55;94339.81;;;15.43;65.14
71107;BME280;58763;47.982;11.516;2023-05-24T09:56:21;94343.47;;;15.39;65.46
71107;BME280;58763;47.982;11.516;2023-05-24T09:58:47;94349.38;;;15.32;64.74
71107;BME280;58763;47.982;11.516;2023-05-24T10:01:14;94336.50;;;15.24;65.92
71107;BME280;58763;47.982;11.516;2023-05-24T10:03:54;94351.00;;;15.33;64.29
71107;BME280;58763;47.982;11.516;2023-05-24T10:06:20;94343.31;;;15.35;63.63
71107;BME280;58763;47.982;11.516;2023-05-24T10:08:47;94348.28;;;15.33;62.71
71107;BME280;58763;47.982;11.516;2023-05-24T10:11:13;94345.22;;;15.35;63.78
71107;BME280;58763;47.982;11.516;2023-05-24T10:13:39;94345.00;;;15.45;62.85
71107;BME280;58763;47.982;11.516;2023-05-24T10:16:05;94342.28;;;15.45;61.82
71107;BME280;58763;47.982;11.516;2023-05-24T10:18:31;94356.00;;;15.40;62.25
71107;BME280;58763;47.982;11.516;2023-05-24T10:20:58;94358.81;;;15.26;62.67
71107;BME280;58763;47.982;11.516;2023-05-24T10:23:25;94356.75;;;15.09;63.93
71107;BME280;58763;47.982;11.516;2023-05-24T10:26:06;94352.09;;;15.10;64.19
71107;BME280;58763;47.982;11.516;2023-05-24T10:28:40;94357.16;;;15.03;65.06
71107;BME280;58763;47.982;11.516;2023-05-24T10:31:10;94354.25;;;14.99;66.04
71107;BME280;58763;47.982;11.516;2023-05-24T10:33:37;94355.78;;;14.92;66.44
71107;BME280;58763;47.982;11.516;2023-05-24T10:36:06;94360.97;;;14.93;68.02
71107;BME280;58763;47.982;11.516;2023-05-24T10:38:34;94356.38;;;15.02;68.14
71107;BME280;58763;47.982;11.516;2023-05-24T10:41:01;94346.34;;;15.11;67.55
71107;BME280;58763;47.982;11.516;2023-05-24T10:43:27;94360.63;;;15.17;67.01
71107;BME280;58763;47.982;11.516;2023-05-24T10:45:53;94360.78;;;15.12;66.80
71107;BME280;58763;47.982;11.516;2023-05-24T10:50:53;94363.69;;;15.15;66.24
71107;BME280;58763;47.982;11.516;2023-05-24T10:53:22;94362.38;;;15.13;66.83
71107;BME280;58763;47.982;11.516;2023-05-24T10:58:25;94363.75;;;15.02;65.16
71107;BME280;58763;47.982;11.516;2023-05-24T11:00:51;94359.00;;;14.94;66.25
71107;BME280;58763;47.982;11.516;2023-05-24T11:03:17;94362.56;;;14.94;67.20
71107;BME280;58763;47.982;11.516;2023-05-24T11:11:07;94352.72;;;15.07;67.42
71107;BME280;58763;47.982;11.516;2023-05-24T11:13:37;94351.09;;;15.06;68.50
71107;BME280;58763;47.982;11.516;2023-05-24T11:16:06;94353.47;;;15.21;68.19
71107;BME280;58763;47.982;11.516;2023-05-24T11:18:32;94349.97;;;15.29;67.70
71107;BME280;58763;47.982;11.516;2023-05-24T11:21:04;94350.25;;;15.19;67.54
71107;BME280;58763;47.982;11.516;2023-05-24T11:23:31;94353.47;;;15.21;68.39
71107;BME280;58763;47.982;11.516;2023-05-24T11:25:56;94353.47;;;15.21;68.08
71107;BME280;58763;47.982;11.516;2023-05-24T11:28:22;94351.56;;;15.21;68.66
71107;BME280;58763;47.982;11.516;2023-05-24T11:30:48;94354.69;;;15.15;68.39
71107;BME280;58763;47.982;11.516;2023-05-24T11:33:20;94352.91;;;15.10;67.40
71107;BME280;58763;47.982;11.516;2023-05-24T11:35:49;94354.31;;;15.08;67.41
71107;BME280;58763;47.982;11.516;2023-05-24T11:38:15;94362.97;;;15.10;67.85
71107;BME280;58763;47.982;11.516;2023-05-24T11:40:43;94358.34;;;15.10;65.97
71107;BME280;58763;47.982;11.516;2023-05-24T11:43:13;94362.25;;;14.96;65.06
71107;BME280;58763;47.982;11.516;2023-05-24T11:45:45;94362.09;;;14.79;64.35
71107;BME280;58763;47.982;11.516;2023-05-24T11:48:13;94363.91;;;14.83;65.72
71107;BME280;58763;47.982;11.516;2023-05-24T11:50:43;94361.56;;;14.90;66.67
71107;BME280;58763;47.982;11.516;2023-05-24T11:53:14;94349.53;;;14.91;67.38
71107;BME280;58763;47.982;11.516;2023-05-24T11:55:41;94353.81;;;15.06;66.64
71107;BME280;58763;47.982;11.516;2023-05-24T11:58:41;94350.19;;;14.88;65.32
71107;BME280;58763;47.982;11.516;2023-05-24T12:01:27;94352.97;;;14.97;64.58
71107;BME280;58763;47.982;11.516;2023-05-24T12:03:53;94354.97;;;14.91;63.60
71107;BME280;58763;47.982;11.516;2023-05-24T12:06:19;94351.00;;;14.89;64.40
71107;BME280;58763;47.982;11.516;2023-05-24T12:08:47;94353.78;;;14.97;64.86
71107;BME280;58763;47.982;11.516;2023-05-24T12:11:13;94359.00;;;15.07;63.80
71107;BME280;58763;47.982;11.516;2023-05-24T12:13:39;94357.53;;;15.10;63.75
71107;BME280;58763;47.982;11.516;2023-05-24T12:16:05;94354.19;;;15.13;63.72
71107;BME280;58763;47.982;11.516;2023-05-24T12:18:31;94357.75;;;15.13;64.00
71107;BME280;58763;47.982;11.516;2023-05-24T12:20:57;94351.81;;;15.11;62.53
71107;BME280;58763;47.982;11.516;2023-05-24T12:23:25;94347.00;;;15.17;63.85
71107;BME280;58763;47.982;11.516;2023-05-24T12:25:57;94354.91;;;15.18;63.57
71107;BME280;58763;47.982;11.516;2023-05-24T12:28:23;94351.72;;;15.25;63.04
71107;BME280;58763;47.982;11.516;2023-05-24T12:30:49;94357.88;;;15.31;63.89
71107;BME280;58763;47.982;11.516;2023-05-24T12:33:18;94366.16;;;15.26;64.09
71107;BME280;58763;47.982;11.516;2023-05-24T12:35:43;94361.09;;;15.33;64.39
71107;BME280;58763;47.982;11.516;2023-05-24T12:38:09;94369.31;;;15.19;62.93
71107;BME280;58763;47.982;11.516;2023-05-24T12:40:35;94362.19;;;15.09;63.31
71107;BME280;58763;47.982;11.516;2023-05-24T12:43:03;94362.97;;;15.10;63.20
71107;BME280;58763;47.982;11.516;2023-05-24T12:45:29;94355.34;;;15.12;63.86
71107;BME280;58763;47.982;11.516;2023-05-24T12:47:56;94356.19;;;14.99;63.42
71107;BME280;58763;47.982;11.516;2023-05-24T12:50:27;94357.00;;;14.99;63.66
71107;BME280;58763;47.982;11.516;2023-05-24T12:52:53;94361.72;;;14.94;63.03
71107;BME280;58763;47.982;11.516;2023-05-24T12:55:21;94358.41;;;14.97;62.67
71107;BME280;58763;47.982;11.516;2023-05-24T12:57:47;94357.31;;;14.98;63.13
71107;BME280;58763;47.982;11.516;2023-05-24T13:00:24;94352.91;;;15.10;62.37
71107;BME280;58763;47.982;11.516;2023-05-24T13:02:54;94346.03;;;15.13;62.04
71107;BME280;58763;47.982;11.516;2023-05-24T13:05:27;94348.47;;;15.14;62.07
71107;BME280;58763;47.982;11.516;2023-05-24T13:07:54;94353.38;;;15.12;62.71
71107;BME280;58763;47.982;11.516;2023-05-24T13:10:22;94356.84;;;15.27;62.63
71107;BME280;58763;47.982;11.516;2023-05-24T13:12:48;94354.69;;;15.15;60.97
71107;BME280;58763;47.982;11.516;2023-05-24T13:15:14;94351.44;;;15.04;60.69
71107;BME280;58763;47.982;11.516;2023-05-24T13:17:40;94350.72;;;14.99;61.74